Time;durP1;ratioP1;P1;durP2;ratioP2;P2;SDS_P1;SDS_P2;PMS_P1;PMS_P2;Temp;Humidity;BMP_temperature;BMP_pressure;BME280_temperature;BME280_humidity;BME280_pressure;Samples;Min_cycle;Max_cycle;Signal;HPM_P1;HPM_P2
2023/07/19 00:00:58;;;;;;;;;;;;;;;22.41;57.97;99197.75;5114252;28;20040;-59
2023/07/19 00:03:27;;;;;;;0.60;0.60;;;;;;;22.25;58.50;99202.97;5114091;28;20357;-59
2023/07/19 00:05:56;;;;;;;0.63;0.63;;;;;;;22.24;58.69;99195.25;5114429;28;20040;-59
2023/07/19 00:08:25;;;;;;;0.60;0.60;;;;;;;22.25;58.92;99192.56;5113724;28;20039;-59
2023/07/19 00:10:53;;;;;;;0.40;0.40;;;;;;;22.27;58.90;99208.91;5113768;28;20043;-59
2023/07/19 00:13:22;;;;;;;0.50;0.50;;;;;;;22.12;59.42;99202.00;5113696;28;20036;-59
2023/07/19 00:15:51;;;;;;;0.95;0.90;;;;;;;21.93;59.87;99201.31;5114034;28;20127;-59
2023/07/19 00:18:22;;;;;;;0.75;0.75;;;;;;;21.82;60.24;99214.00;5114006;28;20400;-59
2023/07/19 00:20:51;;;;;;;0.75;0.50;;;;;;;21.72;60.33;99192.88;5114234;28;20130;-59
2023/07/19 00:23:20;;;;;;;0.43;0.43;;;;;;;21.76;60.04;99172.78;5117933;28;20043;-59
2023/07/19 00:25:48;;;;;;;0.82;0.80;;;;;;;21.77;59.62;99184.84;5117553;28;20118;-59
2023/07/19 00:28:17;;;;;;;0.53;0.53;;;;;;;21.71;60.00;99195.56;5117817;27;20063;-59
2023/07/19 00:30:46;;;;;;;0.85;0.80;;;;;;;21.69;60.23;99181.81;5117788;28;20362;-59
2023/07/19 00:33:15;;;;;;;4.07;0.95;;;;;;;21.72;60.02;99184.22;5116191;28;20046;-59
2023/07/19 00:35:45;;;;;;;0.63;0.63;;;;;;;21.56;60.77;99186.00;5116180;28;20050;-59
2023/07/19 00:38:15;;;;;;;0.85;0.80;;;;;;;21.50;61.21;99178.53;5116409;28;20054;-60
2023/07/19 00:40:44;;;;;;;0.68;0.68;;;;;;;21.51;61.08;99178.44;5116498;28;20059;-59
2023/07/19 00:43:12;;;;;;;0.45;0.45;;;;;;;21.46;61.42;99177.00;5117207;28;20042;-59
2023/07/19 00:45:46;;;;;;;1.00;0.93;;;;;;;21.40;61.55;99169.53;5116297;28;20035;-59
2023/07/19 00:48:18;;;;;;;1.58;0.63;;;;;;;21.28;61.98;99169.25;5117967;28;20046;-59
2023/07/19 00:50:49;;;;;;;0.57;0.57;;;;;;;21.23;62.41;99176.47;5116191;28;20062;-59
2023/07/19 00:53:19;;;;;;;0.50;0.50;;;;;;;21.04;62.69;99156.69;5116311;28;20118;-59
2023/07/19 00:55:50;;;;;;;0.50;0.50;;;;;;;21.13;62.60;99157.09;5117304;28;20124;-59
2023/07/19 00:58:19;;;;;;;0.70;0.70;;;;;;;21.06;62.70;99166.13;5117316;28;20461;-59
2023/07/19 01:00:50;;;;;;;0.60;0.60;;;;;;;21.00;62.96;99178.50;5116959;28;20039;-59
2023/07/19 01:03:19;;;;;;;1.20;1.10;;;;;;;20.80;63.13;99170.91;5115739;28;20036;-59
2023/07/19 01:05:50;;;;;;;0.90;0.70;;;;;;;20.80;63.22;99184.75;5117053;28;20501;-59
2023/07/19 01:08:20;;;;;;;0.90;0.90;;;;;;;20.83;62.99;99178.56;5116807;28;20043;-59
2023/07/19 01:10:50;;;;;;;;;;;;;;;20.70;63.45;99171.38;5117528;28;20055;-59
2023/07/19 01:13:19;;;;;;;;;;;;;;;20.62;63.89;99190.81;5117109;28;19919;-59
2023/07/19 01:15:47;;;;;;;0.88;0.85;;;;;;;20.50;64.16;99186.22;5116764;28;19926;-59
2023/07/19 01:18:19;;;;;;;1.27;1.17;;;;;;;20.46;64.42;99192.50;5116871;28;20066;-59
2023/07/19 01:20:50;;;;;;;1.38;1.27;;;;;;;20.28;64.93;99196.81;5115682;28;20489;-59
2023/07/19 01:23:23;;;;;;;0.82;0.82;;;;;;;20.25;65.20;99201.31;5116510;28;20051;-59
2023/07/19 01:25:52;;;;;;;0.65;0.65;;;;;;;20.21;65.61;99202.31;5116435;28;20043;-59
2023/07/19 01:28:21;;;;;;;0.50;0.50;;;;;;;20.34;65.37;99185.31;5116589;28;20126;-59
2023/07/19 01:30:50;;;;;;;0.50;0.50;;;;;;;20.32;65.17;99181.97;5116386;28;20097;-59
2023/07/19 01:33:19;;;;;;;0.77;0.77;;;;;;;20.31;65.28;99175.06;5115895;28;20096;-59
2023/07/19 01:36:02;;;;;;;0.57;0.57;;;;;;;20.43;64.98;99169.31;5116539;28;20047;-59
2023/07/19 01:38:33;;;;;;;0.65;0.65;;;;;;;20.53;64.37;99178.31;5115985;28;20052;-59
2023/07/19 01:41:02;;;;;;;1.10;1.00;;;;;;;20.60;63.73;99174.50;5116505;28;20039;-59
2023/07/19 01:43:31;;;;;;;0.73;0.73;;;;;;;20.67;63.59;99168.94;5116111;28;20036;-59
2023/07/19 01:46:00;;;;;;;0.60;0.60;;;;;;;20.69;63.79;99168.84;5116032;28;20456;-59
2023/07/19 01:48:30;;;;;;;0.63;0.63;;;;;;;20.69;63.95;99172.28;5115905;28;20126;-59
2023/07/19 01:51:00;;;;;;;0.80;0.70;;;;;;;20.76;63.37;99166.78;5116331;28;20051;-59
2023/07/19 01:53:29;;;;;;;0.55;0.55;;;;;;;20.60;64.22;99177.09;5114978;28;20401;-59
2023/07/19 01:55:59;;;;;;;0.50;0.50;;;;;;;20.54;64.69;99177.38;5114969;28;20084;-59
2023/07/19 01:58:28;;;;;;;0.50;0.50;;;;;;;20.57;64.62;99177.25;5114650;28;20275;-59
2023/07/19 02:00:57;;;;;;;0.88;0.88;;;;;;;20.65;64.28;99160.41;5114930;28;20066;-59
2023/07/19 02:03:26;;;;;;;0.57;0.57;;;;;;;20.68;64.38;99159.41;5114534;28;20122;-59
2023/07/19 02:05:58;;;;;;;0.65;0.65;;;;;;;20.70;64.33;99152.38;5114563;28;20043;-59
2023/07/19 02:08:28;;;;;;;0.85;0.82;;;;;;;20.74;63.81;99169.47;5115552;28;20126;-59
2023/07/19 02:10:58;;;;;;;0.60;0.60;;;;;;;20.55;64.28;99173.88;5114498;28;20044;-59
2023/07/19 02:13:27;;;;;;;0.50;0.50;;;;;;;20.38;64.94;99171.28;5115567;28;20043;-59
2023/07/19 02:15:56;;;;;;;1.23;0.80;;;;;;;20.42;64.87;99173.63;5115789;28;20044;-59
2023/07/19 02:18:25;;;;;;;0.52;0.52;;;;;;;20.40;64.96;99175.47;5115382;28;20280;-59
2023/07/19 02:20:55;;;;;;;0.43;0.43;;;;;;;20.42;64.74;99178.00;5115375;28;20043;-59
2023/07/19 02:23:24;;;;;;;1.85;1.02;;;;;;;20.18;65.48;99184.34;5115433;27;20197;-59
2023/07/19 02:25:55;;;;;;;0.68;0.68;;;;;;;20.15;65.69;99184.47;5115910;28;20488;-59
2023/07/19 02:28:25;;;;;;;0.43;0.43;;;;;;;19.89;66.15;99178.75;5115501;28;20043;-59
2023/07/19 02:30:55;;;;;;;1.42;0.93;;;;;;;19.90;66.33;99175.25;5115217;28;20500;-58
2023/07/19 02:33:24;;;;;;;0.50;0.50;;;;;;;19.87;66.84;99170.22;5115448;28;20054;-59
2023/07/19 02:35:55;;;;;;;0.70;0.70;;;;;;;19.75;67.12;99170.78;5115390;28;20069;-59
2023/07/19 02:38:25;;;;;;;0.63;0.60;;;;;;;19.68;67.67;99171.97;5113625;28;20403;-59
2023/07/19 02:40:59;;;;;;;1.98;1.27;;;;;;;19.75;67.83;99175.13;5115081;28;20043;-59
2023/07/19 02:43:30;;;;;;;0.60;0.60;;;;;;;19.90;67.29;99175.25;5114575;28;20118;-59
2023/07/19 02:45:59;;;;;;;3.67;1.65;;;;;;;20.00;67.20;99176.53;5113537;28;20108;-59
2023/07/19 02:48:28;;;;;;;0.50;0.50;;;;;;;20.00;67.04;99176.53;5113884;28;20071;-59
2023/07/19 02:50:58;;;;;;;0.50;0.50;;;;;;;20.03;66.94;99181.53;5114828;28;20044;-59
2023/07/19 02:53:27;;;;;;;0.77;0.77;;;;;;;20.11;66.63;99190.72;5114719;28;20130;-59
2023/07/19 02:55:56;;;;;;;1.27;0.90;;;;;;;20.15;66.53;99190.50;5114702;28;20048;-59
2023/07/19 02:58:27;;;;;;;0.50;0.50;;;;;;;20.15;66.69;99194.84;5113749;28;20032;-59
2023/07/19 03:00:58;;;;;;;1.00;0.63;;;;;;;20.04;66.74;99193.59;5114957;28;20489;-59
2023/07/19 03:03:27;;;;;;;0.45;0.45;;;;;;;19.92;67.28;99199.34;5114588;28;20043;-59
2023/07/19 03:05:55;;;;;;;14.40;0.98;;;;;;;19.82;67.65;99198.06;5113360;28;20062;-59
2023/07/19 03:08:24;;;;;;;1.37;1.00;;;;;;;19.85;67.76;99195.34;5113425;28;20485;-59
2023/07/19 03:10:54;;;;;;;1.33;0.80;;;;;;;19.83;67.77;99194.59;5114482;28;20089;-59
2023/07/19 03:13:24;;;;;;;0.73;0.73;;;;;;;19.86;67.82;99199.63;5115082;28;20120;-59
2023/07/19 03:15:52;;;;;;;0.43;0.43;;;;;;;19.88;67.56;99200.41;5113394;28;20130;-59
2023/07/19 03:18:23;;;;;;;0.55;0.55;;;;;;;19.82;68.04;99208.44;5113194;28;20066;-59
2023/07/19 03:20:57;;;;;;;0.73;0.73;;;;;;;19.81;68.04;99205.94;5114351;28;20125;-59
2023/07/19 03:23:26;;;;;;;0.90;0.85;;;;;;;19.79;68.00;99203.44;5113097;28;20051;-59
2023/07/19 03:25:57;;;;;;;1.08;1.02;;;;;;;19.80;67.74;99199.91;5114302;28;20122;-59
2023/07/19 03:28:26;;;;;;;0.90;0.77;;;;;;;19.86;67.80;99203.97;5113393;28;20043;-59
2023/07/19 03:30:55;;;;;;;;;;;;;;;19.94;67.41;99207.03;5096203;28;20070;-59
2023/07/19 03:33:27;;;;;;;0.75;0.75;;;;;;;19.95;67.68;99214.75;5114439;28;19981;-59
2023/07/19 03:35:56;;;;;;;1.23;1.13;;;;;;;19.91;67.97;99212.38;5113042;28;20092;-59
2023/07/19 03:38:25;;;;;;;0.80;0.80;;;;;;;19.97;67.81;99212.94;5113051;28;20055;-59
2023/07/19 03:41:04;;;;;;;0.73;0.63;;;;;;;20.02;67.81;99221.31;5114006;28;20271;-59
2023/07/19 03:43:33;;;;;;;0.90;0.85;;;;;;;19.97;68.11;99231.06;5114100;28;20131;-59
2023/07/19 03:46:02;;;;;;;0.70;0.70;;;;;;;19.97;68.38;99231.06;5112808;28;20505;-59
2023/07/19 03:48:35;;;;;;;1.70;1.20;;;;;;;19.98;68.54;99230.16;5113945;28;20035;-59
2023/07/19 03:51:06;;;;;;;0.80;0.80;;;;;;;19.95;68.90;99227.72;5114173;28;20048;-59
2023/07/19 03:53:35;;;;;;;1.75;1.05;;;;;;;19.98;69.39;99229.31;5112739;28;20070;-59
2023/07/19 03:56:04;;;;;;;1.13;0.90;;;;;;;20.00;69.30;99228.34;5115126;28;20401;-59
2023/07/19 03:58:34;;;;;;;1.33;1.15;;;;;;;20.04;69.39;99229.88;5118157;28;20043;-59
2023/07/19 04:01:04;;;;;;;1.30;1.10;;;;;;;20.11;69.36;99229.59;5116893;28;20549;-59
2023/07/19 04:03:35;;;;;;;0.70;0.70;;;;;;;20.18;69.11;99225.81;5118384;28;20745;-59
2023/07/19 04:06:04;;;;;;;0.60;0.60;;;;;;;20.22;69.06;99222.16;5118068;27;20096;-59
2023/07/19 04:08:33;;;;;;;1.27;1.03;;;;;;;20.30;69.07;99218.31;5118044;28;20043;-59
2023/07/19 04:11:02;;;;;;;1.35;1.23;;;;;;;20.45;68.83;99227.94;5118090;28;20070;-59
2023/07/19 04:13:31;;;;;;;2.03;1.88;;;;;;;20.58;68.02;99226.47;5117865;28;20061;-59
2023/07/19 04:16:00;;;;;;;1.80;1.35;;;;;;;20.64;68.08;99236.50;5116717;28;20419;-59
2023/07/19 04:18:30;;;;;;;0.60;0.60;;;;;;;20.70;67.52;99240.56;5117781;28;20074;-59
2023/07/19 04:21:02;;;;;;;0.55;0.55;;;;;;;20.69;67.41;99233.69;5117717;28;20126;-59
2023/07/19 04:23:31;;;;;;;0.60;0.60;;;;;;;20.76;67.55;99226.44;5117701;28;20043;-59
2023/07/19 04:26:01;;;;;;;0.80;0.60;;;;;;;20.84;66.84;99227.75;5117992;28;20142;-59
2023/07/19 04:28:32;;;;;;;1.13;1.02;;;;;;;20.99;65.90;99220.97;5117640;28;20400;-59
2023/07/19 04:31:01;;;;;;;1.08;0.98;;;;;;;21.12;65.90;99216.84;5116266;28;20209;-59
2023/07/19 04:33:31;;;;;;;0.40;0.40;;;;;;;21.13;65.11;99214.19;5116301;28;20536;-59
2023/07/19 04:36:12;;;;;;;1.42;1.20;;;;;;;21.18;64.09;99212.22;5118386;28;20108;-59
2023/07/19 04:38:42;;;;;;;3.05;1.52;;;;;;;21.19;63.74;99208.69;5117331;28;20101;-59
2023/07/19 04:41:11;;;;;;;8.40;2.63;;;;;;;21.27;63.07;99205.69;5117316;28;20051;-59
2023/07/19 04:43:40;;;;;;;0.60;0.60;;;;;;;21.31;62.82;99210.66;5116373;28;20435;-59
2023/07/19 04:46:09;;;;;;;0.40;0.40;;;;;;;21.31;62.40;99207.19;5116352;28;20292;-59
2023/07/19 04:48:39;;;;;;;6.65;2.15;;;;;;;21.38;62.74;99222.38;5115981;28;20044;-59
2023/07/19 04:51:10;;;;;;;1.45;1.10;;;;;;;21.51;62.31;99216.56;5117091;28;20047;-59
2023/07/19 04:53:39;;;;;;;0.88;0.80;;;;;;;21.58;62.19;99215.31;5117158;28;20056;-59
2023/07/19 04:56:08;;;;;;;0.63;0.63;;;;;;;21.64;61.89;99218.44;5117087;28;20044;-59
2023/07/19 04:58:36;;;;;;;0.85;0.85;;;;;;;21.68;61.94;99212.16;5098976;28;20043;-59
2023/07/19 05:01:08;;;;;;;1.55;1.02;;;;;;;21.70;61.67;99219.84;5117047;27;20048;-59
2023/07/19 05:03:39;;;;;;;0.32;0.32;;;;;;;21.71;61.82;99219.78;5116929;28;20054;-59
2023/07/19 05:06:10;;;;;;;1.48;1.15;;;;;;;21.80;61.83;99210.66;5116837;28;20093;-59
2023/07/19 05:08:39;;;;;;;0.50;0.50;;;;;;;21.97;62.11;99218.41;5116115;28;20043;-59
2023/07/19 05:11:07;;;;;;;1.17;1.07;;;;;;;22.06;61.84;99223.09;5116737;28;20040;-59
2023/07/19 05:13:36;;;;;;;1.15;1.05;;;;;;;22.19;61.82;99218.91;5115748;28;20325;-59
2023/07/19 05:16:06;;;;;;;0.40;0.40;;;;;;;22.19;61.63;99208.53;5116623;28;20067;-59
2023/07/19 05:18:35;;;;;;;1.05;0.88;;;;;;;22.20;61.35;99210.19;5115412;28;20048;-59
2023/07/19 05:21:05;;;;;;;0.45;0.45;;;;;;;22.31;61.04;99202.63;5116907;28;20116;-59
2023/07/19 05:23:36;;;;;;;0.85;0.85;;;;;;;22.45;60.84;99210.50;5115312;28;20036;-59
2023/07/19 05:26:05;;;;;;;0.95;0.70;;;;;;;22.60;60.69;99199.19;5116533;28;20071;-59
2023/07/19 05:28:34;;;;;;;0.90;0.90;;;;;;;22.66;60.60;99198.91;5116427;28;20115;-59
2023/07/19 05:31:03;;;;;;;2.92;1.33;;;;;;;22.80;60.17;99199.84;5116389;28;20040;-59
2023/07/19 05:33:34;;;;;;;0.98;0.93;;;;;;;22.87;60.16;99203.75;5116609;28;20059;-59
2023/07/19 05:36:03;;;;;;;1.80;1.13;;;;;;;22.97;59.84;99194.50;5116601;28;20051;-59
2023/07/19 05:38:32;;;;;;;0.73;0.73;;;;;;;23.07;59.55;99195.63;5114756;28;20051;-60
2023/07/19 05:41:03;;;;;;;0.45;0.45;;;;;;;23.18;59.25;99188.00;5116630;28;20043;-59
2023/07/19 05:43:33;;;;;;;1.05;0.98;;;;;;;23.18;58.96;99181.03;5116122;28;20044;-59
2023/07/19 05:46:04;;;;;;;1.17;1.08;;;;;;;23.29;58.85;99183.00;5116429;28;20362;-59
2023/07/19 05:48:34;;;;;;;0.60;0.60;;;;;;;23.44;58.98;99182.13;5116146;28;20047;-59
2023/07/19 05:51:04;;;;;;;1.58;1.13;;;;;;;23.55;59.06;99184.06;5115932;28;20497;-59
2023/07/19 05:53:33;;;;;;;0.65;0.65;;;;;;;23.61;58.86;99176.69;5116568;27;20077;-59
2023/07/19 05:56:04;;;;;;;1.23;1.02;;;;;;;23.74;59.06;99181.97;5115948;28;20495;-59
2023/07/19 05:58:32;;;;;;;0.50;0.50;;;;;;;23.86;58.66;99182.06;5112925;28;20508;-60
2023/07/19 06:01:04;;;;;;;;;;;;;;;24.02;58.34;99178.50;5098934;28;20082;-60
2023/07/19 06:03:34;;;;;;;1.00;0.90;;;;;;;24.19;58.34;99191.31;5096052;28;19920;-59
2023/07/19 06:06:05;;;;;;;2.08;1.00;;;;;;;24.30;58.28;99191.47;5095190;28;20089;-59
2023/07/19 06:08:34;;;;;;;0.47;0.47;;;;;;;24.29;58.26;99184.56;5094710;28;20083;-60
2023/07/19 06:11:05;;;;;;;1.05;0.95;;;;;;;24.28;58.04;99199.38;5094472;28;20062;-59
2023/07/19 06:13:34;;;;;;;1.77;1.35;;;;;;;24.37;57.83;99190.97;5095477;28;20044;-59
2023/07/19 06:16:03;;;;;;;2.88;2.28;;;;;;;24.45;57.49;99193.91;5095033;28;20036;-59
2023/07/19 06:18:31;;;;;;;0.50;0.50;;;;;;;24.57;57.46;99197.50;5094444;28;20036;-59
2023/07/19 06:21:00;;;;;;;1.63;1.17;;;;;;;24.68;57.23;99208.06;5095287;28;20050;-60
2023/07/19 06:23:30;;;;;;;0.77;0.73;;;;;;;24.63;56.99;99207.53;5095141;28;20472;-59
2023/07/19 06:25:59;;;;;;;2.38;0.98;;;;;;;24.68;56.99;99197.63;5095439;28;20394;-59
2023/07/19 06:28:31;;;;;;;0.70;0.70;;;;;;;24.75;56.93;99200.66;5097090;28;20070;-59
2023/07/19 06:31:01;;;;;;;0.70;0.70;;;;;;;24.68;57.01;99200.25;5095023;28;20546;-59
2023/07/19 06:33:31;;;;;;;1.05;0.90;;;;;;;24.87;57.00;99205.94;5094787;28;20052;-59
2023/07/19 06:35:59;;;;;;;0.70;0.70;;;;;;;24.95;56.98;99198.44;5094641;28;20101;-59
2023/07/19 06:38:29;;;;;;;0.65;0.65;;;;;;;25.02;56.78;99194.50;5092500;28;20044;-60
2023/07/19 06:41:02;;;;;;;3.53;1.50;;;;;;;25.16;56.77;99189.16;5097428;28;20051;-59
2023/07/19 06:43:33;;;;;;;0.80;0.80;;;;;;;25.30;56.56;99193.44;5093344;28;20075;-59
2023/07/19 06:46:01;;;;;;;0.50;0.50;;;;;;;25.46;56.02;99181.00;5099205;28;20040;-59
2023/07/19 06:48:30;;;;;;;2.85;2.53;;;;;;;25.52;56.15;99182.38;5114735;28;20042;-59
2023/07/19 06:50:59;;;;;;;1.25;1.10;;;;;;;25.62;55.77;99175.56;5114905;28;20135;-59
2023/07/19 06:53:28;;;;;;;0.70;0.70;;;;;;;25.67;55.72;99176.06;5113604;28;20042;-59
2023/07/19 06:55:59;;;;;;;1.25;1.15;;;;;;;25.84;56.19;99175.72;5110363;28;20060;-59
2023/07/19 06:58:28;;;;;;;1.95;1.67;;;;;;;25.94;55.83;99176.72;5094159;28;20064;-59
2023/07/19 07:00:58;;;;;;;0.70;0.70;;;;;;;25.99;55.49;99185.06;5093309;28;20375;-59
2023/07/19 07:03:28;;;;;;;1.05;1.00;;;;;;;26.07;55.10;99187.13;5094540;28;20048;-59
2023/07/19 07:06:00;;;;;;;0.80;0.80;;;;;;;26.17;55.42;99190.78;5094621;28;20036;-59
2023/07/19 07:08:32;;;;;;;0.90;0.80;;;;;;;26.28;55.14;99183.84;5110060;28;20092;-60
2023/07/19 07:11:01;;;;;;;1.65;1.20;;;;;;;26.42;55.26;99188.88;5114329;28;20044;-60
2023/07/19 07:13:29;;;;;;;2.17;1.33;;;;;;;26.58;55.25;99189.44;5114938;28;20044;-60
2023/07/19 07:16:01;;;;;;;1.02;0.73;;;;;;;26.79;55.22;99194.06;5109516;28;20486;-60
2023/07/19 07:18:30;;;;;;;1.00;0.90;;;;;;;26.80;55.35;99180.03;5093502;28;20059;-64
2023/07/19 07:20:59;;;;;;;1.17;1.08;;;;;;;26.89;55.27;99174.09;5094175;28;20040;-60
2023/07/19 07:23:28;;;;;;;1.20;1.05;;;;;;;27.02;55.67;99177.44;5105603;28;20493;-60
2023/07/19 07:25:56;;;;;;;0.70;0.70;;;;;;;27.13;55.73;99178.31;5093898;28;20043;-60
2023/07/19 07:28:26;;;;;;;1.05;0.88;;;;;;;27.26;55.04;99180.78;5092633;28;20036;-60
2023/07/19 07:30:55;;;;;;;1.05;0.80;;;;;;;27.20;55.21;99178.66;5093407;28;20068;-60
2023/07/19 07:33:26;;;;;;;1.08;0.93;;;;;;;27.21;55.66;99175.09;5095467;28;20035;-60
2023/07/19 07:35:54;;;;;;;1.13;1.00;;;;;;;27.16;56.69;99172.00;5093710;28;20058;-60
2023/07/19 07:38:23;;;;;;;3.63;1.23;;;;;;;27.12;57.76;99173.16;5093884;28;20085;-60
2023/07/19 07:41:00;;;;;;;0.52;0.52;;;;;;;27.02;56.89;99164.31;5093745;28;20489;-60
2023/07/19 07:43:30;;;;;;;1.08;1.00;;;;;;;27.16;56.87;99167.56;5093959;28;20554;-60
2023/07/19 07:45:59;;;;;;;0.70;0.60;;;;;;;27.20;56.76;99173.41;5093470;28;20504;-62
2023/07/19 07:48:30;;;;;;;2.20;1.58;;;;;;;27.17;56.75;99173.66;5093145;28;20036;-60
2023/07/19 07:50:58;;;;;;;1.27;0.80;;;;;;;27.11;56.58;99168.88;5093586;28;20044;-60
2023/07/19 07:53:27;;;;;;;2.65;2.22;;;;;;;26.96;56.55;99160.41;5092304;28;20515;-60
2023/07/19 07:55:56;;;;;;;1.00;0.90;;;;;;;27.02;57.24;99159.09;5093856;28;20390;-60
2023/07/19 07:58:25;;;;;;;1.20;0.77;;;;;;;27.18;57.38;99151.75;5093843;28;20040;-60
2023/07/19 08:00:54;;;;;;;;;;;;;;;27.12;57.16;99128.63;5093886;28;20094;-60
2023/07/19 08:03:24;;;;;;;1.17;0.93;;;;;;;27.09;57.16;99113.97;5094141;28;19919;-60
2023/07/19 08:05:54;;;;;;;0.80;0.80;;;;;;;27.18;57.54;99120.28;5093932;28;20040;-60
2023/07/19 08:08:23;;;;;;;0.80;0.80;;;;;;;27.35;56.70;99130.31;5093469;28;20048;-61
2023/07/19 08:10:52;;;;;;;1.67;1.17;;;;;;;27.52;57.09;99137.69;5093346;28;20482;-61
2023/07/19 08:13:21;;;;;;;1.05;0.77;;;;;;;27.63;56.83;99140.31;5093268;28;20062;-61
2023/07/19 08:15:49;;;;;;;0.60;0.60;;;;;;;27.72;56.47;99144.81;5093323;28;20036;-61
2023/07/19 08:18:18;;;;;;;1.42;0.98;;;;;;;27.91;56.34;99133.69;5093340;28;20040;-60
2023/07/19 08:20:47;;;;;;;1.02;0.93;;;;;;;28.11;56.09;99130.31;5093911;28;20048;-61
2023/07/19 08:23:17;;;;;;;1.65;1.05;;;;;;;28.10;55.23;99141.75;5093499;28;20099;-61
2023/07/19 08:25:46;;;;;;;1.50;1.40;;;;;;;28.17;54.85;99134.25;5093617;28;20050;-61
2023/07/19 08:28:15;;;;;;;1.10;1.00;;;;;;;28.29;54.80;99134.06;5093155;28;20036;-60
2023/07/19 08:30:44;;;;;;;0.93;0.80;;;;;;;28.36;54.75;99139.66;5093306;28;20044;-60
2023/07/19 08:33:12;;;;;;;0.75;0.75;;;;;;;28.53;54.55;99132.03;5092912;28;20147;-61
2023/07/19 08:35:42;;;;;;;2.13;1.63;;;;;;;28.56;54.72;99146.72;5095417;28;20067;-61
2023/07/19 08:38:11;;;;;;;2.50;1.75;;;;;;;28.70;54.10;99138.53;5096940;28;20032;-63
2023/07/19 08:40:42;;;;;;;1.08;0.98;;;;;;;28.77;54.36;99139.69;5096904;28;20066;-61
2023/07/19 08:43:13;;;;;;;6.35;2.33;;;;;;;29.04;53.30;99153.13;5095687;28;20166;-61
2023/07/19 08:45:42;;;;;;;0.85;0.70;;;;;;;29.26;51.77;99154.81;5097097;28;20052;-61
2023/07/19 08:48:11;;;;;;;0.50;0.50;;;;;;;29.44;51.49;99155.03;5097002;28;20040;-61
2023/07/19 08:50:42;;;;;;;1.48;1.35;;;;;;;29.59;51.16;99153.66;5096756;28;20528;-60
2023/07/19 08:53:10;;;;;;;3.17;2.45;;;;;;;29.84;50.50;99161.97;5096859;28;20401;-61
2023/07/19 08:55:42;;;;;;;0.75;0.75;;;;;;;29.88;49.58;99165.13;5096921;28;20371;-61
2023/07/19 08:58:11;;;;;;;0.68;0.68;;;;;;;29.74;49.04;99149.69;5097044;28;20047;-61
2023/07/19 09:00:40;;;;;;;0.73;0.73;;;;;;;29.69;49.03;99149.28;5096655;28;20044;-60
2023/07/19 09:03:10;;;;;;;1.10;1.00;;;;;;;29.71;48.58;99136.81;5095969;28;20474;-64
2023/07/19 09:05:38;;;;;;;;;;;;;;;29.65;48.26;99137.38;5097322;28;20039;-60
2023/07/19 09:08:09;;;;;;;0.95;0.85;;;;;;;29.68;48.35;99134.47;5096493;28;19920;-60
2023/07/19 09:10:38;;;;;;;1.30;1.10;;;;;;;29.85;47.94;99139.09;5098146;28;20125;-61
2023/07/19 09:13:08;;;;;;;0.70;0.70;;;;;;;30.05;47.19;99130.25;5100017;28;20037;-61
2023/07/19 09:15:37;;;;;;;0.85;0.85;;;;;;;30.30;46.94;99124.47;5097235;28;20075;-61
2023/07/19 09:18:06;;;;;;;1.00;0.90;;;;;;;30.49;46.24;99118.38;5118309;27;20039;-60
2023/07/19 09:20:37;;;;;;;3.40;1.42;;;;;;;30.55;45.48;99111.72;5101629;28;20444;-61
2023/07/19 09:23:07;;;;;;;2.03;1.35;;;;;;;30.58;45.66;99112.25;5096181;28;20114;-60
2023/07/19 09:25:53;;;;;;;0.95;0.85;;;;;;;30.56;45.16;99108.94;5096152;28;20079;-61
2023/07/19 09:28:24;;;;;;;1.65;0.98;;;;;;;30.63;45.27;99104.75;5095195;28;20051;-61
2023/07/19 09:30:59;;;;;;;2.20;1.58;;;;;;;30.88;45.80;99098.03;5111472;28;20109;-61
2023/07/19 09:33:48;;;;;;;2.65;1.80;;;;;;;31.00;44.45;99104.84;5114336;28;20521;-61
2023/07/19 09:36:18;;;;;;;;;;;;;;;31.00;43.87;99110.13;5116660;28;20069;-60
2023/07/19 09:38:48;;;;;;;1.08;0.98;;;;;;;30.91;44.07;99100.41;5097249;28;20006;-61
2023/07/19 09:41:16;;;;;;;;;;;;;;;31.08;43.98;99099.66;5096684;28;20044;-61
2023/07/19 09:43:48;;;;;;;0.77;0.77;;;;;;;31.00;43.05;99102.19;5096035;28;19920;-61
2023/07/19 09:46:18;;;;;;;1.48;1.15;;;;;;;30.84;43.44;99094.00;5095909;28;20442;-61
2023/07/19 09:48:48;;;;;;;1.10;1.00;;;;;;;30.96;43.56;99090.25;5095996;28;20039;-61
2023/07/19 09:51:19;;;;;;;2.50;0.88;;;;;;;31.03;43.61;99096.63;5095955;28;20032;-61
2023/07/19 09:53:50;;;;;;;0.75;0.50;;;;;;;31.20;42.82;99093.22;5095036;28;21067;-61
2023/07/19 09:56:19;;;;;;;1.00;0.90;;;;;;;31.37;42.28;99095.09;5095532;28;20087;-60
2023/07/19 09:58:51;;;;;;;0.82;0.82;;;;;;;31.43;42.21;99086.63;5095489;28;20485;-61
2023/07/19 10:01:20;;;;;;;1.48;1.15;;;;;;;31.44;41.55;99075.06;5095427;28;20054;-61
2023/07/19 10:03:49;;;;;;;3.50;1.77;;;;;;;31.61;41.26;99074.28;5095936;28;20097;-61
2023/07/19 10:06:17;;;;;;;;;;;;;;;31.68;41.16;99064.78;5095959;28;20125;-60
2023/07/19 10:08:48;;;;;;;1.40;1.23;;;;;;;31.77;40.43;99065.69;5095299;28;19934;-60
2023/07/19 10:11:25;;;;;;;1.52;1.00;;;;;;;31.93;40.18;99057.94;5095410;28;20036;-60
2023/07/19 10:13:57;;;;;;;2.78;0.95;;;;;;;32.03;40.00;99056.09;5095051;28;20044;-61
2023/07/19 10:16:35;;;;;;;0.82;0.82;;;;;;;32.01;39.68;99052.75;5101083;28;20089;-60
2023/07/19 10:19:11;;;;;;;1.42;1.13;;;;;;;31.82;40.10;99058.16;5115448;28;20058;-60
2023/07/19 10:22:02;;;;;;;0.68;0.68;;;;;;;31.56;39.88;99058.06;5115853;28;20047;-60
2023/07/19 10:24:32;;;;;;;0.60;0.60;;;;;;;31.34;40.35;99058.44;5111530;28;20050;-60
2023/07/19 10:27:02;;;;;;;0.85;0.85;;;;;;;31.29;39.76;99044.84;5115280;28;20100;-60
2023/07/19 10:29:43;;;;;;;0.52;0.52;;;;;;;31.58;39.76;99034.97;5115361;27;20048;-60
2023/07/19 10:32:12;;;;;;;0.73;0.60;;;;;;;31.90;39.03;99015.16;5115180;28;20134;-60
2023/07/19 10:34:44;;;;;;;;;;;;;;;32.16;38.76;99018.69;5098262;28;20079;-60
2023/07/19 10:37:13;;;;;;;0.88;0.80;;;;;;;32.30;37.67;99016.31;5094328;28;19928;-60
2023/07/19 10:39:42;;;;;;;0.40;0.40;;;;;;;32.30;37.25;99005.75;5093927;28;20490;-62
2023/07/19 10:42:11;;;;;;;0.60;0.60;;;;;;;32.35;37.75;99013.22;5094341;28;20040;-60
2023/07/19 10:44:40;;;;;;;1.27;1.17;;;;;;;32.41;37.72;99024.03;5094560;28;20040;-60
2023/07/19 10:47:15;;;;;;;2.88;1.23;;;;;;;32.49;38.14;99015.28;5094829;28;20070;-60
2023/07/19 10:49:43;;;;;;;0.73;0.73;;;;;;;32.40;38.21;99021.50;5093811;28;20382;-60
2023/07/19 10:52:12;;;;;;;2.28;1.65;;;;;;;32.37;38.13;99012.06;5094449;28;20040;-61
2023/07/19 10:54:54;;;;;;;2.30;1.77;;;;;;;32.20;38.21;99004.22;5094544;28;20555;-61
2023/07/19 10:57:42;;;;;;;1.00;0.77;;;;;;;32.14;38.06;98996.88;5094053;28;20105;-62
2023/07/19 11:00:13;;;;;;;1.73;1.00;;;;;;;32.02;37.93;99001.59;5092796;28;20138;-61
2023/07/19 11:02:47;;;;;;;0.50;0.50;;;;;;;32.20;37.69;98996.28;5094213;28;20513;-60
2023/07/19 11:05:16;;;;;;;0.50;0.50;;;;;;;32.27;37.39;98999.97;5094010;28;20048;-60
2023/07/19 11:07:45;;;;;;;0.50;0.50;;;;;;;32.42;37.17;98995.75;5094137;28;20058;-61
2023/07/19 11:10:14;;;;;;;1.05;0.98;;;;;;;32.60;36.28;99001.84;5094115;28;20056;-60
2023/07/19 11:12:43;;;;;;;0.65;0.60;;;;;;;32.74;36.03;99006.56;5092665;28;20075;-64
2023/07/19 11:15:12;;;;;;;1.00;0.88;;;;;;;32.81;35.45;98994.34;5101978;28;20027;-61
2023/07/19 11:17:41;;;;;;;1.15;1.05;;;;;;;32.92;35.40;99002.00;5102452;28;20060;-61
2023/07/19 11:20:12;;;;;;;0.85;0.85;;;;;;;33.06;35.35;98997.97;5103319;28;20035;-60
2023/07/19 11:22:41;;;;;;;0.65;0.65;;;;;;;32.96;35.80;99006.00;5101597;28;20063;-61
2023/07/19 11:25:14;;;;;;;0.93;0.70;;;;;;;33.12;35.33;99001.75;5113780;28;20047;-60
2023/07/19 11:27:43;;;;;;;0.60;0.60;;;;;;;33.22;35.21;98999.81;5112295;28;20050;-61
2023/07/19 11:30:12;;;;;;;0.93;0.85;;;;;;;33.11;34.74;99000.97;5094238;28;20036;-65
2023/07/19 11:32:41;;;;;;;;;;;;;;;33.03;34.34;98999.13;5094446;28;20040;-61
2023/07/19 11:35:11;;;;;;;0.40;0.40;;;;;;;32.99;34.75;98994.28;5093633;28;19945;-60
2023/07/19 11:37:40;;;;;;;1.05;0.95;;;;;;;33.09;34.88;99002.91;5093156;28;20036;-61
2023/07/19 11:40:16;;;;;;;0.77;0.77;;;;;;;33.09;34.09;98987.88;5113677;28;20127;-60
2023/07/19 11:42:46;;;;;;;0.60;0.60;;;;;;;33.05;33.92;98991.00;5110744;28;20066;-60
2023/07/19 11:45:18;;;;;;;0.85;0.55;;;;;;;32.94;34.02;98984.19;5093710;28;20131;-60
2023/07/19 11:47:50;;;;;;;0.65;0.65;;;;;;;32.99;34.08;98992.44;5093999;28;20390;-61
2023/07/19 11:50:20;;;;;;;5.30;1.65;;;;;;;32.81;34.77;98982.94;5093876;28;20485;-60